Language selection

Features

My Weather Profile Weather Topics  | 

Explorer - northwestern half: Past 24 Hour Conditions

 

East Dellwood - 46207

03:00 PM PST 17 January 2020Buoy position: 50.88N 129.93W
Disclaimer

This table is a summary of hourly weather conditions for the past 24 hours.
Please note that these observations might not always be representative of weather conditions over their associated marine area.

Date / Time
(PST)
Wind(knots) Wave height(m) Wave period(s) Pressure(kPa) Air tempC) Water tempC)
17 January 2020
15:00 ESE 29 gust 35 3.1 7.0 100.7 5 8
14:00 ESE 29 gust 35 2.9 6.0 100.9 6 8
13:00 ESE 27 gust 33 2.3 6.0 101.0 5 8
12:00 ESE 23 gust 29 1.8 5.0 101.1 5 8
11:00 ESE 23 gust 29 1.6 10.0 101.2 5 8
10:00 ESE 17 gust 23 1.6 10.0 101.3 4 8
9:00 ESE 16 gust 19 1.4 9.0 101.3 4 8
8:00 SE 16 gust 22 1.4 10.0 101.2 3 8
7:00 SSE 13 gust 19 1.5 10.0 101.2 4 8
6:00 SSE 12 gust 16 1.6 10.0 101.2 3 8
5:00 SE 8 gust 12 1.6 10.0 101.2 2 8
4:00 SE 12 gust 13 1.6 11.0 101.1 1 8
3:00 SE 8 gust 12 1.7 11.0 101.1 2 8
2:00 S 4 gust 8 1.8 11.0 101.1 2 8
1:00 SSW 4 gust 10 1.7 10.0 101.0 2 8
0:00 WSW 8 gust 12 1.9 10.0 101.0 1 8
16 January 2020
23:00 W 8 gust 12 2.0 11.0 100.9 1 8
22:00 W 6 gust 12 1.9 12.0 100.8 1 8
21:00 SW 12 gust 16 2.1 12.0 100.7 1 8
20:00 W 8 gust 12 1.9 12.0 100.6 1 8
19:00 W 6 gust 12 2.2 12.0 100.6 1 8
18:00 W 12 gust 17 2.2 11.0 100.5 1 8
17:00 W 10 gust 16 2.1 12.0 100.4 0 8
16:00 W 10 gust 13 2.4 12.0 100.4 0 8
15:00 WSW 12 gust 17 2.4 12.0 100.3 0 8

Zoom-in to make a selection

Map of Pacific - North Coast marine weather areas Middle Nomad - 46004 South Nomad - 46036 Dixon Entrance Central - 46145 South Moresby - 46147 Nanakwa Shoal - 46181 North Hecate Strait - 46183 North Nomad - 46184 South Hecate Strait - 46185 West Sea Otter - 46204 West Dixon Entrance - 46205 East Dellwood - 46207 West Moresby - 46208 Sartine Island Cape St.James Kindakun Rocks Langara Island Masset Municipal Airport Rose Spit Sandspit Airport Bella Bella Airport Bella Coola Airport Bonilla Island Cathedral Point Cumshewa Island Grey Islet Holland Rock Lucy Islands Lightstation Prince Rupert Airport
Legend:
buoy Buoy
land station Land Station

Pacific - North Coast Area

Another Region

What we are doing

Date modified: